Terminal Aerodrome Forecast
Issued by NWS

Home | Current Version | Previous Version | Text Only | Print | Product List | Glossary On
Versions: 1 2 3 4 5 6 7 8 9 10 11 12 13 14 15
437
FTUS45 KABQ 270435 AAA
TAFLVS
TAF AMD
KLVS 270435Z 2705/2724 23008KT P6SM FEW130
     FM272000 24014G24KT P6SM SKC=

USA.gov is the U.S. government's official web portal to all federal, state and local government web resources and services.